Time;durP1;ratioP1;P1;durP2;ratioP2;P2;SDS_P1;SDS_P2;PMS_P1;PMS_P2;Temp;Humidity;BMP_temperature;BMP_pressure;BME280_temperature;BME280_humidity;BME280_pressure;Samples;Min_cycle;Max_cycle;Signal;HPM_P1;HPM_P2
2024/01/20 00:01:52;;;;;;;42.40;32.93;;;-1.60;99.90;;;;;;5044089;28;20459;-79
2024/01/20 00:04:18;;;;;;;39.03;32.07;;;-1.60;99.90;;;;;;5046874;28;20438;-79
2024/01/20 00:06:45;;;;;;;45.27;32.60;;;-1.70;99.90;;;;;;5045134;28;20508;-79
2024/01/20 00:09:12;;;;;;;37.47;31.50;;;-1.70;99.90;;;;;;5045266;28;20509;-79
2024/01/20 00:11:39;;;;;;;40.63;32.07;;;-1.70;99.90;;;;;;5041677;28;20518;-79
2024/01/20 00:14:06;;;;;;;41.07;32.43;;;-1.60;99.90;;;;;;5047350;28;20450;-79
2024/01/20 00:16:34;;;;;;;37.90;32.13;;;-1.70;99.90;;;;;;5043105;28;20880;-79
2024/01/20 00:19:01;;;;;;;38.17;31.63;;;-1.70;99.90;;;;;;5048025;28;20540;-79
2024/01/20 00:21:27;;;;;;;37.03;30.43;;;-1.70;99.90;;;;;;5046005;28;20439;-79
2024/01/20 00:23:54;;;;;;;41.83;33.53;;;-1.70;99.90;;;;;;5039450;28;20521;-79
2024/01/20 00:26:21;;;;;;;39.57;32.97;;;-1.70;99.90;;;;;;5046387;28;20450;-79
2024/01/20 00:28:48;;;;;;;40.30;33.40;;;-1.70;99.90;;;;;;5041353;28;20920;-79
2024/01/20 00:31:15;;;;;;;39.77;33.03;;;-1.70;99.90;;;;;;5045945;28;20506;-79
2024/01/20 00:33:43;;;;;;;41.17;32.17;;;-1.80;99.90;;;;;;5048507;28;20478;-79
2024/01/20 00:36:10;;;;;;;37.73;31.13;;;-1.80;99.90;;;;;;5035915;28;20464;-79
2024/01/20 00:38:39;;;;;;;39.10;30.67;;;-1.80;99.90;;;;;;5048328;28;20485;-79
2024/01/20 00:41:06;;;;;;;38.70;31.33;;;-1.90;99.90;;;;;;5043027;28;20443;-79
2024/01/20 00:43:33;;;;;;;43.83;31.93;;;-1.90;99.90;;;;;;5046503;28;20504;-79
2024/01/20 00:46:00;;;;;;;36.90;30.37;;;-2.00;99.90;;;;;;5042618;28;20938;-79
2024/01/20 00:48:26;;;;;;;36.07;31.63;;;-2.00;99.90;;;;;;5047101;28;20497;-79
2024/01/20 00:50:55;;;;;;;35.23;29.87;;;-2.00;99.90;;;;;;5033828;28;20519;-79
2024/01/20 00:53:21;;;;;;;35.23;29.83;;;-2.00;99.90;;;;;;5033018;28;20434;-79
2024/01/20 00:55:48;;;;;;;33.10;28.77;;;-2.10;99.90;;;;;;5047965;28;20472;-80
2024/01/20 00:58:15;;;;;;;33.23;27.87;;;-2.10;99.90;;;;;;5027177;28;20860;-79
2024/01/20 01:00:42;;;;;;;34.10;29.17;;;-2.10;99.90;;;;;;5048193;28;20990;-79
2024/01/20 01:03:09;;;;;;;35.73;30.00;;;-2.20;99.90;;;;;;5042969;28;20443;-79
2024/01/20 01:05:35;;;;;;;33.63;29.10;;;-2.20;99.90;;;;;;5048053;28;20978;-79
2024/01/20 01:08:04;;;;;;;31.73;28.33;;;-2.30;99.90;;;;;;5045374;28;20493;-79
2024/01/20 01:10:31;;;;;;;32.50;28.07;;;-2.20;99.90;;;;;;5031106;28;20458;-79
2024/01/20 01:12:57;;;;;;;35.97;28.50;;;-2.30;99.90;;;;;;5043804;28;20524;-79
2024/01/20 01:15:24;;;;;;;34.03;29.03;;;-2.30;99.90;;;;;;5039961;28;20455;-79
2024/01/20 01:17:51;;;;;;;34.93;29.40;;;-2.30;99.90;;;;;;5042337;28;20532;-79
2024/01/20 01:20:18;;;;;;;32.87;29.17;;;-2.30;99.90;;;;;;5042657;28;20438;-79
2024/01/20 01:22:45;;;;;;;35.83;29.53;;;-2.30;99.90;;;;;;5050278;28;20434;-79
2024/01/20 01:25:13;;;;;;;37.47;30.50;;;-2.30;99.90;;;;;;5040997;28;20466;-79
2024/01/20 01:27:40;;;;;;;31.57;27.13;;;-2.30;99.90;;;;;;5042879;28;20466;-79
2024/01/20 01:30:08;;;;;;;31.97;28.23;;;-2.30;99.90;;;;;;5045109;28;20481;-79
2024/01/20 01:32:35;;;;;;;34.90;29.30;;;-2.40;99.90;;;;;;5047146;28;20488;-79
2024/01/20 01:35:03;;;;;;;33.73;28.47;;;-2.40;99.90;;;;;;5045663;28;20941;-79
2024/01/20 01:37:30;;;;;;;34.97;30.37;;;-2.50;99.90;;;;;;5047008;28;20466;-79
2024/01/20 01:39:56;;;;;;;36.17;30.40;;;-2.50;99.90;;;;;;5046389;28;20462;-79
2024/01/20 01:42:24;;;;;;;35.23;30.53;;;-2.50;99.90;;;;;;5041024;28;21002;-78
2024/01/20 01:44:52;;;;;;;37.43;31.13;;;-2.50;99.90;;;;;;5045547;28;20449;-79
2024/01/20 01:47:19;;;;;;;36.17;30.50;;;-2.50;99.90;;;;;;5044869;28;20438;-78
2024/01/20 01:49:46;;;;;;;39.07;30.37;;;-2.50;99.90;;;;;;5041581;28;20508;-79
2024/01/20 01:52:14;;;;;;;33.63;29.17;;;-2.60;99.90;;;;;;5044332;28;20446;-79
2024/01/20 01:54:41;;;;;;;38.63;29.97;;;-2.60;99.90;;;;;;5042268;28;20804;-79
2024/01/20 01:57:09;;;;;;;42.53;32.13;;;-2.60;99.90;;;;;;5047930;28;20450;-79
2024/01/20 01:59:38;;;;;;;38.73;30.67;;;-2.50;99.90;;;;;;5040013;28;20477;-79
2024/01/20 02:02:05;;;;;;;37.33;29.67;;;-2.60;99.90;;;;;;5042392;28;20446;-79
2024/01/20 02:04:32;;;;;;;35.50;30.17;;;-2.60;99.90;;;;;;5044370;28;20435;-79
2024/01/20 02:06:59;;;;;;;39.27;31.27;;;-2.60;99.90;;;;;;5038696;28;20450;-79
2024/01/20 02:09:26;;;;;;;36.50;29.83;;;-2.60;99.90;;;;;;5030325;28;20570;-79
2024/01/20 02:11:53;;;;;;;38.23;29.53;;;-2.60;99.90;;;;;;5031506;28;20960;-78
2024/01/20 02:14:21;;;;;;;36.10;30.70;;;-2.70;99.90;;;;;;5045029;28;20438;-79
2024/01/20 02:16:49;;;;;;;32.43;28.80;;;-2.70;99.90;;;;;;5033878;28;20447;-79
2024/01/20 02:19:16;;;;;;;38.40;29.57;;;-2.70;99.90;;;;;;5045487;28;20469;-79
2024/01/20 02:21:43;;;;;;;37.40;30.43;;;-2.60;99.90;;;;;;5033311;28;20877;-78
2024/01/20 02:24:11;;;;;;;36.13;29.80;;;-2.60;99.90;;;;;;5042122;28;20496;-79
2024/01/20 02:26:38;;;;;;;32.43;28.07;;;-2.60;99.90;;;;;;5045757;28;20461;-79
2024/01/20 02:29:05;;;;;;;34.53;28.07;;;-2.60;99.90;;;;;;5040579;28;20483;-79
2024/01/20 02:31:32;;;;;;;33.60;29.40;;;-2.70;99.90;;;;;;5046645;28;20433;-79
2024/01/20 02:34:00;;;;;;;35.87;28.80;;;-2.70;99.90;;;;;;5044542;28;20433;-79
2024/01/20 02:36:26;;;;;;;32.37;28.87;;;-2.70;99.90;;;;;;5045834;28;20453;-79
2024/01/20 02:38:53;;;;;;;33.23;28.47;;;-2.80;99.90;;;;;;5047573;28;20511;-79
2024/01/20 02:41:21;;;;;;;32.53;27.77;;;-2.90;99.90;;;;;;5038517;28;20442;-78
2024/01/20 02:43:48;;;;;;;34.23;27.43;;;-3.00;99.90;;;;;;5043462;28;20474;-79
2024/01/20 02:46:15;;;;;;;32.03;27.90;;;-3.10;99.90;;;;;;5048450;28;20491;-79
2024/01/20 02:48:42;;;;;;;30.63;27.37;;;-3.20;99.90;;;;;;5046060;28;20512;-79
2024/01/20 02:51:09;;;;;;;33.37;26.80;;;-3.30;99.90;;;;;;5044805;28;20481;-78
2024/01/20 02:53:35;;;;;;;33.90;28.53;;;-3.30;99.90;;;;;;5043199;28;20456;-79
2024/01/20 02:56:02;;;;;;;33.80;29.67;;;-3.30;99.90;;;;;;5050049;28;20430;-79
2024/01/20 02:58:30;;;;;;;36.77;30.67;;;-3.30;99.90;;;;;;5035433;28;20510;-79
2024/01/20 03:00:58;;;;;;;38.87;30.50;;;-3.30;99.90;;;;;;5029622;28;20532;-79
2024/01/20 03:03:25;;;;;;;35.80;29.57;;;-3.40;99.90;;;;;;5038353;28;20442;-79
2024/01/20 03:05:53;;;;;;;39.83;31.03;;;-3.30;99.90;;;;;;5047000;28;20438;-79
2024/01/20 03:08:19;;;;;;;39.17;31.10;;;-3.30;99.90;;;;;;5049180;28;20454;-79
2024/01/20 03:10:46;;;;;;;39.37;30.77;;;-3.30;99.90;;;;;;5047112;28;20521;-79
2024/01/20 03:13:13;;;;;;;39.63;31.00;;;-3.30;99.90;;;;;;5051364;28;20442;-79
2024/01/20 03:15:41;;;;;;;39.20;30.67;;;-3.40;99.90;;;;;;5042852;28;20847;-79
2024/01/20 03:18:08;;;;;;;38.77;30.33;;;-3.40;99.90;;;;;;5054984;28;21220;-79
2024/01/20 03:20:35;;;;;;;41.00;32.67;;;-3.50;99.90;;;;;;5046871;28;20466;-79
2024/01/20 03:23:01;;;;;;;33.93;29.00;;;-3.40;99.90;;;;;;5041671;28;20466;-79
2024/01/20 03:25:28;;;;;;;36.10;29.60;;;-3.50;99.90;;;;;;5033357;28;20462;-79
2024/01/20 03:27:56;;;;;;;36.27;30.23;;;-3.50;99.90;;;;;;5046296;28;20457;-79
2024/01/20 03:30:23;;;;;;;36.30;30.93;;;-3.60;99.90;;;;;;5039278;28;20486;-79
2024/01/20 03:32:51;;;;;;;37.70;30.90;;;-3.60;99.90;;;;;;5041488;28;20434;-79
2024/01/20 03:35:18;;;;;;;44.27;31.93;;;-3.70;99.90;;;;;;5041426;28;20907;-79
2024/01/20 03:37:45;;;;;;;41.03;33.00;;;-3.70;99.90;;;;;;5036545;28;20536;-79
2024/01/20 03:40:12;;;;;;;38.40;30.83;;;-3.70;99.90;;;;;;5043314;28;20443;-79
2024/01/20 03:42:38;;;;;;;37.20;31.03;;;-3.70;99.90;;;;;;5033019;28;20498;-78
2024/01/20 03:45:06;;;;;;;40.30;31.70;;;-3.70;99.90;;;;;;5049305;28;20441;-79
2024/01/20 03:47:33;;;;;;;41.00;33.67;;;-3.80;99.90;;;;;;5045152;28;20458;-78
2024/01/20 03:50:03;;;;;;;41.77;32.83;;;-3.70;99.90;;;;;;5051475;28;20469;-79
2024/01/20 03:52:30;;;;;;;43.73;32.67;;;-3.70;99.90;;;;;;5048785;28;20986;-80
2024/01/20 03:54:57;;;;;;;42.37;32.30;;;-3.80;99.90;;;;;;5043425;28;20442;-79
2024/01/20 03:57:24;;;;;;;42.53;31.63;;;-3.90;99.90;;;;;;5032959;28;20485;-79
2024/01/20 03:59:51;;;;;;;36.47;30.53;;;-3.90;99.90;;;;;;5032652;28;22318;-78
2024/01/20 04:02:17;;;;;;;36.30;30.30;;;-4.00;99.90;;;;;;5034020;28;20466;-79
2024/01/20 04:04:44;;;;;;;40.43;31.53;;;-4.10;99.90;;;;;;5032290;28;20516;-79
2024/01/20 04:07:12;;;;;;;39.63;30.77;;;-4.10;99.90;;;;;;5032979;28;20528;-79
2024/01/20 04:09:39;;;;;;;40.93;32.73;;;-4.20;99.90;;;;;;5033570;28;20450;-79
2024/01/20 04:12:07;;;;;;;40.80;30.27;;;-4.20;99.90;;;;;;5032539;28;20512;-79
2024/01/20 04:14:34;;;;;;;39.73;30.90;;;-4.20;99.90;;;;;;5027141;28;21189;-79
2024/01/20 04:17:00;;;;;;;36.27;29.93;;;-4.20;99.90;;;;;;5031884;28;20884;-79
2024/01/20 04:19:27;;;;;;;40.23;31.03;;;-4.30;99.90;;;;;;5033750;28;21029;-79
2024/01/20 04:21:54;;;;;;;36.70;31.20;;;-4.30;99.90;;;;;;5033349;28;20941;-79
2024/01/20 04:24:22;;;;;;;37.60;30.07;;;-4.40;99.90;;;;;;5033503;28;20847;-79
2024/01/20 04:26:49;;;;;;;39.37;32.00;;;-4.40;99.90;;;;;;5032208;28;20442;-78
2024/01/20 04:29:15;;;;;;;37.73;30.90;;;-4.40;99.90;;;;;;5033185;28;20450;-79
2024/01/20 04:31:42;;;;;;;39.57;31.43;;;-4.40;99.90;;;;;;5031743;28;20551;-79
2024/01/20 04:34:09;;;;;;;37.77;31.70;;;-4.40;99.90;;;;;;5031744;28;20455;-79
2024/01/20 04:36:36;;;;;;;41.73;32.10;;;-4.40;99.90;;;;;;5032130;28;20442;-79
2024/01/20 04:39:03;;;;;;;40.27;31.77;;;-4.40;99.90;;;;;;5031952;28;20560;-79
2024/01/20 04:41:31;;;;;;;42.10;31.33;;;-4.30;99.90;;;;;;5031841;28;20462;-79
2024/01/20 04:43:58;;;;;;;42.77;32.40;;;-4.30;99.90;;;;;;5025298;28;20446;-79
2024/01/20 04:46:24;;;;;;;38.37;31.10;;;-4.40;99.90;;;;;;5033024;28;20439;-78
2024/01/20 04:48:51;;;;;;;41.43;30.70;;;-4.40;99.90;;;;;;5029555;28;22055;-79
2024/01/20 04:51:18;;;;;;;43.70;31.63;;;-4.50;99.90;;;;;;5027912;28;20524;-79
2024/01/20 04:53:45;;;;;;;45.53;30.93;;;-4.50;99.90;;;;;;5038167;28;20447;-79
2024/01/20 04:56:11;;;;;;;41.43;31.57;;;-4.50;99.90;;;;;;5041769;28;20481;-79
2024/01/20 04:58:40;;;;;;;38.17;31.23;;;-4.50;99.90;;;;;;5043712;28;20453;-79
2024/01/20 05:01:06;;;;;;;42.17;30.90;;;-4.50;99.90;;;;;;5044590;28;20462;-79
2024/01/20 05:03:33;;;;;;;38.07;29.90;;;-4.50;99.90;;;;;;5034599;28;20972;-79
2024/01/20 05:06:00;;;;;;;41.97;32.13;;;-4.50;99.90;;;;;;5035659;28;20481;-79
2024/01/20 05:08:26;;;;;;;45.97;32.83;;;-4.50;99.90;;;;;;5041383;28;20466;-78
2024/01/20 05:10:53;;;;;;;45.97;32.83;;;-4.40;99.90;;;;;;5043441;28;20532;-78
2024/01/20 05:13:20;;;;;;;41.43;32.40;;;-4.40;99.90;;;;;;5049658;28;20445;-79
2024/01/20 05:15:48;;;;;;;46.20;32.23;;;-4.30;99.90;;;;;;5043265;28;20463;-79
2024/01/20 05:18:15;;;;;;;40.63;30.63;;;-4.20;99.90;;;;;;5042127;28;20477;-79
2024/01/20 05:20:42;;;;;;;41.77;32.17;;;-4.10;99.90;;;;;;5042357;28;20937;-79
2024/01/20 05:23:08;;;;;;;40.63;30.60;;;-4.10;99.90;;;;;;5042909;28;20987;-79
2024/01/20 05:25:35;;;;;;;41.00;30.10;;;-4.00;99.90;;;;;;5042884;28;20437;-79
2024/01/20 05:28:02;;;;;;;36.67;29.77;;;-3.90;99.90;;;;;;5045561;28;20453;-78
2024/01/20 05:30:29;;;;;;;36.70;29.63;;;-3.90;99.90;;;;;;5041575;28;20466;-79
2024/01/20 05:32:57;;;;;;;41.33;31.07;;;-3.90;99.90;;;;;;5033882;28;20446;-79
2024/01/20 05:35:24;;;;;;;42.77;32.40;;;-3.80;99.90;;;;;;5045378;28;20456;-79
2024/01/20 05:37:51;;;;;;;37.60;29.40;;;-3.90;99.90;;;;;;5045053;28;20482;-78
2024/01/20 05:40:17;;;;;;;42.53;31.40;;;-3.80;99.90;;;;;;5044284;28;20458;-78
2024/01/20 05:42:44;;;;;;;37.53;30.17;;;-3.90;99.90;;;;;;5045071;28;20472;-78
2024/01/20 05:45:11;;;;;;;38.60;29.93;;;-3.90;99.90;;;;;;5044723;28;21029;-78
2024/01/20 05:47:38;;;;;;;41.53;30.60;;;-3.90;99.90;;;;;;5043965;28;20493;-78
2024/01/20 05:50:07;;;;;;;36.10;29.17;;;-3.90;99.90;;;;;;5041292;28;20447;-78
2024/01/20 05:52:34;;;;;;;38.10;28.77;;;-3.90;99.90;;;;;;5036895;28;20984;-79
2024/01/20 05:55:01;;;;;;;34.47;27.83;;;-3.90;99.90;;;;;;5027904;28;20881;-79
2024/01/20 05:57:28;;;;;;;41.30;29.93;;;-4.00;99.90;;;;;;5037681;28;20569;-79
2024/01/20 05:59:54;;;;;;;33.73;27.33;;;-4.00;99.90;;;;;;5045152;28;20473;-79
2024/01/20 06:02:21;;;;;;;33.63;27.93;;;-4.00;99.90;;;;;;5046410;28;20438;-79
2024/01/20 06:04:48;;;;;;;36.53;29.30;;;-4.10;99.90;;;;;;5047353;28;20449;-79
2024/01/20 06:07:16;;;;;;;35.97;28.77;;;-4.10;99.90;;;;;;5032023;28;20446;-78
2024/01/20 06:09:43;;;;;;;35.10;28.57;;;-4.10;99.90;;;;;;5046226;28;20499;-78
2024/01/20 06:12:12;;;;;;;40.20;30.17;;;-4.00;99.90;;;;;;5041429;28;20903;-79
2024/01/20 06:14:39;;;;;;;41.73;30.23;;;-4.00;99.90;;;;;;5047261;28;20491;-79
2024/01/20 06:17:06;;;;;;;41.40;30.80;;;-4.00;99.90;;;;;;5045443;28;20492;-78
2024/01/20 06:19:32;;;;;;;38.47;31.47;;;-3.90;99.90;;;;;;5038691;28;20446;-78
2024/01/20 06:21:59;;;;;;;41.83;32.30;;;-3.80;99.90;;;;;;5050597;28;20500;-78
2024/01/20 06:24:27;;;;;;;38.33;31.20;;;-3.80;99.90;;;;;;5034530;28;20462;-77
2024/01/20 06:26:54;;;;;;;40.77;30.53;;;-3.70;99.90;;;;;;5039645;28;20528;-78
2024/01/20 06:29:21;;;;;;;41.70;31.30;;;-3.70;99.90;;;;;;5048978;28;20471;-81
2024/01/20 06:31:48;;;;;;;37.03;30.10;;;-3.80;99.90;;;;;;5046469;28;20474;-79
2024/01/20 06:34:14;;;;;;;37.63;31.00;;;-3.80;99.90;;;;;;5036924;28;20434;-80
2024/01/20 06:36:41;;;;;;;37.40;30.70;;;-3.80;99.90;;;;;;5032125;28;20509;-79
2024/01/20 06:39:08;;;;;;;41.73;31.87;;;-3.70;99.90;;;;;;5044442;28;20557;-79
2024/01/20 06:41:36;;;;;;;36.83;30.80;;;-3.60;99.90;;;;;;5042619;28;20949;-79
2024/01/20 06:44:03;;;;;;;34.10;27.27;;;-3.50;99.90;;;;;;5046300;28;20454;-79
2024/01/20 06:46:30;;;;;;;35.87;29.17;;;-3.50;99.90;;;;;;5038475;28;20457;-80
2024/01/20 06:48:56;;;;;;;35.00;28.80;;;-3.40;99.90;;;;;;5046166;28;20475;-79
2024/01/20 06:51:26;;;;;;;36.43;30.23;;;-3.50;99.90;;;;;;5044544;28;20473;-82
2024/01/20 06:53:57;;;;;;;33.20;29.13;;;-3.50;99.90;;;;;;5038234;28;20461;-79
2024/01/20 06:56:24;;;;;;;34.47;27.70;;;-3.60;99.90;;;;;;5032924;28;20487;-83
2024/01/20 06:58:52;;;;;;;36.07;29.17;;;-3.60;99.90;;;;;;5044964;28;22251;-79
2024/01/20 07:01:19;;;;;;;36.97;30.40;;;-3.60;99.90;;;;;;5051386;28;20497;-79
2024/01/20 07:03:46;;;;;;;35.20;30.07;;;-3.50;99.90;;;;;;5038235;28;20485;-79
2024/01/20 07:06:13;;;;;;;35.83;30.07;;;-3.50;99.90;;;;;;5046107;28;20551;-79
2024/01/20 07:08:40;;;;;;;37.47;30.43;;;-3.50;99.90;;;;;;5041877;28;20473;-78
2024/01/20 07:11:09;;;;;;;37.87;30.23;;;-3.60;99.90;;;;;;5044564;28;20461;-79
2024/01/20 07:13:37;;;;;;;31.73;27.47;;;-3.60;99.90;;;;;;5049676;28;20541;-79
2024/01/20 07:16:09;;;;;;;35.17;29.27;;;-3.50;99.90;;;;;;5043608;28;20430;-79
2024/01/20 07:18:36;;;;;;;37.40;29.87;;;-3.50;99.90;;;;;;5045428;28;20473;-79
2024/01/20 07:21:03;;;;;;;33.97;29.57;;;-3.50;99.90;;;;;;5036363;28;20458;-80
2024/01/20 07:23:30;;;;;;;38.80;30.37;;;-3.60;99.90;;;;;;5047046;28;20454;-80
2024/01/20 07:25:58;;;;;;;37.77;30.53;;;-3.60;99.90;;;;;;5048443;28;20472;-80
2024/01/20 07:28:25;;;;;;;43.13;32.70;;;-3.50;99.90;;;;;;5041697;28;20556;-80
2024/01/20 07:30:51;;;;;;;38.67;30.87;;;-3.50;99.90;;;;;;5047255;28;20848;-80
2024/01/20 07:33:20;;;;;;;37.60;30.80;;;-3.40;99.90;;;;;;5047827;28;20426;-79
2024/01/20 07:35:47;;;;;;;36.90;31.97;;;-3.40;99.90;;;;;;5050085;28;20457;-80
2024/01/20 07:38:14;;;;;;;38.43;29.90;;;-3.40;99.90;;;;;;5044687;28;20454;-79
2024/01/20 07:40:41;;;;;;;34.23;29.47;;;-3.50;99.90;;;;;;5040849;28;20462;-79
2024/01/20 07:43:08;;;;;;;40.33;30.10;;;-3.50;99.90;;;;;;5042743;28;20438;-80
2024/01/20 07:45:35;;;;;;;38.50;30.90;;;-3.50;99.90;;;;;;5040497;28;20470;-79
2024/01/20 07:48:02;;;;;;;37.20;30.50;;;-3.40;99.90;;;;;;5048302;28;21279;-79
2024/01/20 07:50:30;;;;;;;42.47;32.73;;;-3.40;99.90;;;;;;5039948;28;20438;-79
2024/01/20 07:52:57;;;;;;;39.40;29.20;;;-3.40;99.90;;;;;;5041801;28;20491;-80
2024/01/20 07:55:24;;;;;;;42.40;31.93;;;-3.30;99.90;;;;;;5042208;28;20438;-78
2024/01/20 07:57:51;;;;;;;41.07;31.63;;;-3.30;99.90;;;;;;5047734;28;20485;-79
2024/01/20 08:00:18;;;;;;;45.27;33.13;;;-3.40;99.90;;;;;;5035545;28;20582;-80
2024/01/20 08:02:45;;;;;;;45.80;32.30;;;-3.40;99.90;;;;;;5032218;28;20501;-79
2024/01/20 08:05:12;;;;;;;39.47;31.47;;;-3.50;99.90;;;;;;5029442;28;20476;-81
2024/01/20 08:07:40;;;;;;;39.40;31.80;;;-3.40;99.90;;;;;;5034884;28;20466;-81
2024/01/20 08:10:07;;;;;;;40.10;29.60;;;-3.30;99.90;;;;;;5032083;28;20487;-81
2024/01/20 08:12:34;;;;;;;33.83;29.73;;;-3.20;99.90;;;;;;5048401;28;20835;-81
2024/01/20 08:15:01;;;;;;;38.73;29.50;;;-3.20;99.90;;;;;;5042248;28;20441;-80
2024/01/20 08:17:27;;;;;;;34.83;28.47;;;-3.10;99.90;;;;;;5044535;28;21051;-79
2024/01/20 08:19:54;;;;;;;37.33;28.20;;;-3.10;99.90;;;;;;5034352;28;20526;-81
2024/01/20 08:22:22;;;;;;;36.53;30.03;;;-3.10;99.90;;;;;;5030200;28;20474;-81
2024/01/20 08:24:50;;;;;;;38.47;31.00;;;-3.10;99.90;;;;;;5035590;28;20533;-81
2024/01/20 08:27:17;;;;;;;34.43;29.87;;;-3.10;99.90;;;;;;5035087;28;20459;-80
2024/01/20 08:29:44;;;;;;;43.93;32.30;;;-3.20;99.90;;;;;;5040285;28;21022;-79
2024/01/20 08:32:10;;;;;;;43.07;32.23;;;-3.20;99.90;;;;;;5041706;28;20466;-79
2024/01/20 08:34:37;;;;;;;41.63;31.97;;;-3.20;99.90;;;;;;5043644;28;20434;-79
2024/01/20 08:37:04;;;;;;;38.47;31.57;;;-3.20;99.90;;;;;;5045865;28;20513;-78
2024/01/20 08:39:31;;;;;;;43.80;31.50;;;-3.10;99.90;;;;;;5031954;28;20493;-79
2024/01/20 08:42:00;;;;;;;38.80;30.60;;;-3.10;99.90;;;;;;5043901;28;20988;-80
2024/01/20 08:44:27;;;;;;;36.07;29.37;;;-3.10;99.90;;;;;;5039945;28;20464;-80
2024/01/20 08:46:54;;;;;;;38.80;31.23;;;-3.20;99.90;;;;;;5045932;28;20458;-82
2024/01/20 08:49:22;;;;;;;39.80;30.33;;;-3.30;99.90;;;;;;5037643;28;20481;-80
2024/01/20 08:51:48;;;;;;;37.07;29.77;;;-3.30;99.90;;;;;;5034253;28;20474;-80
2024/01/20 08:54:15;;;;;;;42.00;31.13;;;-3.20;99.90;;;;;;5046218;28;20831;-81
2024/01/20 08:56:43;;;;;;;35.83;29.63;;;-3.30;99.90;;;;;;5039897;28;20435;-80
2024/01/20 08:59:11;;;;;;;32.77;27.53;;;-3.00;99.90;;;;;;5041405;28;20930;-80
2024/01/20 09:01:38;;;;;;;30.43;27.13;;;-2.90;99.90;;;;;;5038162;28;20518;-80
2024/01/20 09:04:05;;;;;;;35.20;28.50;;;-2.90;99.90;;;;;;5034434;28;20489;-80
2024/01/20 09:06:31;;;;;;;34.97;28.13;;;-2.90;99.90;;;;;;5032953;28;20435;-80
2024/01/20 09:08:58;;;;;;;36.40;29.97;;;-2.90;99.90;;;;;;5042587;28;20486;-80
2024/01/20 09:11:25;;;;;;;35.93;30.13;;;-2.90;99.90;;;;;;5037934;28;20454;-80
2024/01/20 09:13:53;;;;;;;40.00;29.70;;;-2.80;99.90;;;;;;5035113;28;20442;-80
2024/01/20 09:16:21;;;;;;;34.40;27.90;;;-2.70;99.90;;;;;;5046947;28;20778;-78
2024/01/20 09:18:47;;;;;;;36.13;28.63;;;-2.60;99.90;;;;;;5044581;28;20473;-78
2024/01/20 09:21:14;;;;;;;36.20;27.60;;;-2.50;99.90;;;;;;5044466;28;20434;-80
2024/01/20 09:23:42;;;;;;;34.33;28.43;;;-2.40;99.90;;;;;;5046709;28;20451;-79
2024/01/20 09:26:09;;;;;;;35.13;27.00;;;-2.20;99.90;;;;;;5040738;28;20843;-80
2024/01/20 09:28:35;;;;;;;36.07;28.10;;;-2.10;99.90;;;;;;5046061;28;20868;-85
2024/01/20 09:31:03;;;;;;;39.40;29.73;;;-2.00;99.90;;;;;;5037876;28;20806;-79
2024/01/20 09:33:32;;;;;;;42.80;30.33;;;-2.00;99.90;;;;;;5045041;28;20499;-80
2024/01/20 09:35:59;;;;;;;38.07;28.20;;;-1.90;99.90;;;;;;5046456;28;20988;-80
2024/01/20 09:38:28;;;;;;;39.63;29.23;;;-1.70;99.90;;;;;;5038586;28;20460;-80
2024/01/20 09:40:56;;;;;;;32.70;27.77;;;-1.60;99.90;;;;;;5043195;28;20475;-79
2024/01/20 09:43:23;;;;;;;36.63;29.13;;;-1.50;99.90;;;;;;5031812;28;20935;-79
2024/01/20 09:45:50;;;;;;;34.90;28.00;;;-1.40;99.90;;;;;;5041117;28;20492;-85
2024/01/20 09:48:17;;;;;;;37.30;28.93;;;-1.40;99.90;;;;;;5032015;28;20455;-77
2024/01/20 09:50:45;;;;;;;40.43;29.93;;;-1.30;99.90;;;;;;5039125;28;20439;-79
2024/01/20 09:53:15;;;;;;;36.07;27.83;;;-1.20;99.90;;;;;;5042474;28;20504;-79
2024/01/20 09:55:42;;;;;;;38.67;30.33;;;-1.00;99.90;;;;;;5053858;28;20480;-79
2024/01/20 09:58:12;;;;;;;36.57;28.90;;;-1.00;99.90;;;;;;5043747;28;20472;-79
2024/01/20 10:00:39;;;;;;;34.97;29.40;;;-0.90;99.90;;;;;;5030269;28;20450;-79
2024/01/20 10:03:09;;;;;;;37.00;29.53;;;-1.10;99.90;;;;;;5031678;28;20437;-79
2024/01/20 10:05:36;;;;;;;34.20;29.10;;;-1.20;99.90;;;;;;5031897;28;20498;-79
2024/01/20 10:08:05;;;;;;;41.07;31.97;;;-1.20;99.90;;;;;;5026255;28;20468;-79
2024/01/20 10:10:32;;;;;;;35.50;28.87;;;-1.10;99.90;;;;;;5036339;28;20477;-78
2024/01/20 10:13:00;;;;;;;36.13;29.30;;;-1.00;99.90;;;;;;5047605;28;20482;-79
2024/01/20 10:15:29;;;;;;;36.97;29.67;;;-1.00;99.90;;;;;;5042245;28;20527;-83
2024/01/20 10:17:56;;;;;;;36.37;29.37;;;-0.90;99.90;;;;;;5018550;28;20914;-79
2024/01/20 10:20:24;;;;;;;36.83;29.47;;;-0.70;99.90;;;;;;5031632;28;20485;-79
2024/01/20 10:22:52;;;;;;;36.93;28.60;;;-0.60;99.90;;;;;;5040717;28;20832;-77
2024/01/20 10:25:20;;;;;;;34.97;28.20;;;-0.60;99.90;;;;;;5041685;28;20866;-79
2024/01/20 10:27:48;;;;;;;37.87;28.13;;;-0.50;99.90;;;;;;5033529;28;20485;-78
2024/01/20 10:30:16;;;;;;;34.50;28.23;;;-0.40;99.90;;;;;;5047324;28;20898;-81
2024/01/20 10:32:44;;;;;;;31.57;28.03;;;-0.30;99.90;;;;;;5035047;28;20473;-81
2024/01/20 10:35:11;;;;;;;35.73;28.00;;;-0.40;99.90;;;;;;5033227;28;20552;-81
2024/01/20 10:37:40;;;;;;;34.00;28.03;;;-0.40;99.90;;;;;;5028772;28;20454;-81
2024/01/20 10:40:12;;;;;;;34.33;27.73;;;-0.50;99.90;;;;;;5038540;28;20447;-81
2024/01/20 10:42:44;;;;;;;33.97;28.70;;;-0.60;99.90;;;;;;5033652;28;20532;-81
2024/01/20 10:45:15;;;;;;;31.77;26.97;;;-0.70;99.90;;;;;;5041090;28;20438;-81
2024/01/20 10:47:53;;;;;;;35.07;28.80;;;-0.80;99.90;;;;;;5046905;28;20546;-81
2024/01/20 10:50:23;;;;;;;33.67;27.80;;;-0.90;99.90;;;;;;5039288;28;20857;-81
2024/01/20 10:52:51;;;;;;;38.03;28.90;;;-1.00;99.90;;;;;;5041247;28;20475;-81
2024/01/20 10:55:19;;;;;;;35.90;29.23;;;-1.10;99.90;;;;;;5052059;28;20436;-81
2024/01/20 10:57:47;;;;;;;41.07;29.87;;;-1.30;99.90;;;;;;5031704;28;20518;-81
2024/01/20 11:00:15;;;;;;;37.63;31.30;;;-1.40;99.90;;;;;;5050020;28;20455;-82
2024/01/20 11:02:43;;;;;;;40.97;31.03;;;-1.60;99.90;;;;;;5034526;28;20685;-80
2024/01/20 11:05:21;;;;;;;41.63;30.60;;;-1.60;99.90;;;;;;5040618;28;20449;-84
2024/01/20 11:07:58;;;;;;;38.87;30.00;;;-1.50;99.90;;;;;;5040055;28;20465;-80
2024/01/20 11:10:26;;;;;;;40.53;30.83;;;-1.70;99.90;;;;;;5047346;28;20507;-82
2024/01/20 11:13:00;;;;;;;41.30;29.80;;;-1.70;99.90;;;;;;5047054;28;20486;-79
2024/01/20 11:15:29;;;;;;;37.80;29.77;;;-1.70;99.90;;;;;;5043844;28;20500;-80
2024/01/20 11:17:56;;;;;;;38.93;30.33;;;-1.60;99.90;;;;;;5027471;28;20480;-83
2024/01/20 11:20:23;;;;;;;34.53;28.93;;;-1.60;99.90;;;;;;5027972;28;21015;-81
2024/01/20 11:22:50;;;;;;;37.23;29.63;;;-1.40;99.90;;;;;;5023987;28;20436;-81
2024/01/20 11:25:18;;;;;;;34.77;27.60;;;-1.40;99.90;;;;;;5030937;28;20455;-82
2024/01/20 11:27:46;;;;;;;34.13;28.30;;;-1.40;99.90;;;;;;5028914;28;21201;-80
2024/01/20 11:30:24;;;;;;;42.50;32.87;;;-1.30;99.90;;;;;;5027957;28;20502;-80
2024/01/20 11:32:51;;;;;;;36.93;29.47;;;-1.40;99.90;;;;;;5021751;28;20465;-82
2024/01/20 11:35:18;;;;;;;37.90;29.50;;;-1.40;99.90;;;;;;5034543;28;20440;-82
2024/01/20 11:37:44;;;;;;;40.53;32.73;;;-1.30;99.90;;;;;;5035246;28;20496;-81
2024/01/20 11:40:12;;;;;;;36.50;30.63;;;-1.30;99.90;;;;;;5054172;28;20431;-79
2024/01/20 11:42:39;;;;;;;34.67;29.03;;;-1.20;99.90;;;;;;5046273;28;20923;-79
2024/01/20 11:45:07;;;;;;;35.60;30.30;;;-1.10;99.90;;;;;;5038219;28;20444;-80
2024/01/20 11:47:35;;;;;;;36.57;28.73;;;-1.10;99.90;;;;;;5048328;28;20466;-80
2024/01/20 11:50:02;;;;;;;35.73;28.17;;;-1.00;99.90;;;;;;5046829;28;20443;-78
2024/01/20 11:52:29;;;;;;;39.57;31.37;;;-0.90;99.90;;;;;;5038340;28;20475;-78
2024/01/20 11:54:56;;;;;;;38.37;30.70;;;-0.90;99.90;;;;;;5047639;28;21035;-79
2024/01/20 11:57:26;;;;;;;37.73;30.07;;;-0.90;99.90;;;;;;5045328;28;21028;-78
2024/01/20 11:59:53;;;;;;;41.23;31.60;;;-0.90;99.90;;;;;;5050862;28;20780;-78
2024/01/20 12:02:22;;;;;;;42.30;32.23;;;-1.00;99.90;;;;;;5045856;28;20455;-78
2024/01/20 12:04:50;;;;;;;34.77;28.80;;;-1.10;99.90;;;;;;5046086;28;20496;-78
2024/01/20 12:07:18;;;;;;;41.13;30.50;;;-1.00;99.90;;;;;;5039931;28;20439;-77
2024/01/20 12:09:45;;;;;;;33.80;29.07;;;-1.00;99.90;;;;;;5049653;28;21002;-77
2024/01/20 12:12:13;;;;;;;38.73;29.73;;;-0.90;99.90;;;;;;5046650;28;20448;-78
2024/01/20 12:14:42;;;;;;;34.83;28.33;;;-0.90;99.90;;;;;;5039825;28;20479;-78
2024/01/20 12:17:08;;;;;;;38.17;29.17;;;-0.90;99.90;;;;;;5047550;28;20544;-77
2024/01/20 12:19:38;;;;;;;33.20;28.17;;;-0.90;99.90;;;;;;5048142;28;20474;-79
2024/01/20 12:22:07;;;;;;;37.50;30.03;;;-0.80;99.90;;;;;;5043842;28;20853;-79
2024/01/20 12:24:34;;;;;;;35.93;29.80;;;-0.70;99.90;;;;;;5041786;28;20484;-78
2024/01/20 12:27:02;;;;;;;34.60;27.43;;;-0.70;99.90;;;;;;5042070;28;20447;-79
2024/01/20 12:29:29;;;;;;;33.87;26.83;;;-0.70;99.90;;;;;;5044806;28;20464;-78